EGMCEGFF

Guest
Details From EGMC - Southend
To EGFF - Cardiff
Flight Number -
Tags generated
Created
Modified
Stats Distance 151 nm / 280 km
Max Altitude 16,000 ft / 4,877 m
Waypoints 3
Social Downloads 0
Likes 0
Share VATSIM

Download

Looking for another format? Having issues loading an existing format? Contact us
Advertisement - Login to hide

Notes

Basic altitude profile: - Ascent Rate: 2500ft/min - Ascent Speed: 250kts - Cruise Altitude: 35000ft - Cruise Speed: 420kts - Descent Rate: 1500ft/min - Descent Speed: 250kts Options: - Use NATs: yes - Use PACOTS: yes - Use low airways: yes - Use high airways: yes

Route

EGMC CPT EGFF

ID Type Via Altitude Latitude Longitude Leg Dist Tot Dist Heading (true) Name
O EGMC APT - 0 ft / 0 m 51.57144˚ 0.69558˚ - 0 nm - Southend
CPT VOR - 16,000 ft / 4,877 m 51.49167˚ -1.21972˚ 71 nm 71 nm 267° / 265° COMPTON VOR-DME
O EGFF APT - 0 ft / 0 m 51.39656˚ -3.34320˚ 79 nm 151 nm 267° / 265° Cardiff

Altitude Profile

Advertisement - Login to hide

EGMC

Details ICAO EGMC (SEN)
Name Southend
Region United Kingdom
Timezone Europe/London (UTC+0.0)
Stats Elevation 49 ft / 15 m (AMSL)
Location 51.571443° 0.695583°
Runways 1
Magnetic Variation 0.170° W

METAR

EGMC 151420Z 32014KT 290V350 9999 SCT017 BKN030 05/02 Q0998

Decode

TAF

Not found

Departure Runways

ID Width Length Bearing (true) Bearing (mag) Surface Threshold Offset Overrun Length
06 121 ft / 37 m 5,230 ft / 1,594 m 54.10° 54.27° Asphalt 558 ft / 170 m 0 ft / 0 m
24 121 ft / 37 m 5,230 ft / 1,594 m 234.11° 234.28° Asphalt 466 ft / 142 m 0 ft / 0 m

EGFF

Details ICAO EGFF (CWL)
Name Cardiff
Region United Kingdom
Timezone Europe/London (UTC+0.0)
Stats Elevation 220 ft / 67 m (AMSL)
Location 51.396565° -3.343202°
Runways 1
Magnetic Variation 1.578° W

METAR

EGFF 151420Z AUTO 01014KT 9999 NCD 07/02 Q1005

Decode

TAF

TAF EGFF 151104Z 1512/1612 28008KT 9999 FEW025 PROB40 TEMPO 1512/1518 34012KT

Decode

Destination Runways

ID Width Length Bearing (true) Bearing (mag) Surface Threshold Offset Overrun Length
12 131 ft / 40 m 7,831 ft / 2,387 m 116.82° 118.40° Asphalt 715 ft / 218 m 0 ft / 0 m
30 131 ft / 40 m 7,831 ft / 2,387 m 296.84° 298.42° Asphalt 594 ft / 181 m 0 ft / 0 m

Approach Navaids

Runway Type Ident Frequency Range Bearing (true) Bearing (mag) Slope Elevation
12 Localiser ICDF 110.70 MHz 18 nm / 33 km 116.85° 118.43° - 220 ft / 67 m (AMSL)
12 Glidescope ICDF 110.70 MHz 10 nm / 19 km 116.83° 118.41° 3.00° 220 ft / 67 m (AMSL)
12 DME ICDF 110.70 MHz 18 nm / 33 km - - - 281 ft / 86 m (AMSL)
30 Localiser ICWA 110.70 MHz 18 nm / 33 km 296.82° 298.40° - 220 ft / 67 m (AMSL)
30 Glidescope ICWA 110.70 MHz 10 nm / 19 km 296.83° 298.41° 3.00° 220 ft / 67 m (AMSL)
30 DME ICWA 110.70 MHz 18 nm / 33 km - - - 220 ft / 67 m (AMSL)